Terminal Aerodrome Forecast
Issued by NWS

Home | Current Version | Previous Version | Text Only | Print | Product List | Glossary On
Versions: 1 2 3 4 5 6 7 8 9 10 11 12 13 14 15 16 17 18 19
000
FTUS41 KBGM 251700
TAFELM
TAF
KELM 251732Z 2518/2618 23005KT P6SM FEW045
     FM260000 VRB03KT P6SM BKN200
      TEMPO 2608/2612 2SM BR SCT002
     FM261500 24005KT P6SM BKN120=

USA.gov is the U.S. government's official web portal to all federal, state and local government web resources and services.